• Join FlightAware (Why Join?)
  • Login
  • US Flag 
09:37PM EDT


 

Airport Tracker/Info


-or-


 

Live Flight TrackerFlight Track Log ✈ UCA4838 ✈ 17-May-2013 ✈ KALB - KEWR

Flight Track Log - Related Links

Times and Time Zones

All times are in EDT time to prevent confusion due to time zone crossing. See the UCA4838 flight status page for this flight to view local times or setup timezone preferences in your user account.

Time Position Orientation Groundspeed Altitude Reporting Facility
EDT Latitude Longitude Course Direction KTS MPH feet Rate Location/Type
09:31AM 42.7611 -73.8089 359° North 134 154 1,000  Level Boston Center
09:32AM 42.7964 -73.8097 359° North 130 150 2,300 1,320 Climbing Boston Center
09:33AM 42.8272 -73.8414 323° Northwest 177 204 3,700 1,440 Climbing Boston Center
09:34AM 42.7789 -73.8742 206° Southwest 206 237 5,300 1,200 Climbing Boston Center
09:35AM 42.7264 -73.9042 203° Southwest 213 245 6,200 1,140 Climbing Boston Center
09:36AM 42.6719 -73.9367 204° Southwest 217 250 7,600 1,320 Climbing Boston Center
09:37AM 42.6214 -73.9636 201° Southwest 217 250 8,800 1,200 Climbing Boston Center
09:38AM 42.5669 -73.9961 204° Southwest 212 244 9,900 720 Climbing Boston Center
09:38AM 42.5228 -74.0178 200° South 231 266 10,100  Climbing Boston Center
09:39AM 42.4639 -74.0528 204° Southwest 247 284 10,000 -60 Descending Boston Center
09:40AM 42.3925 -74.0931 203° Southwest 253 291 10,000  Level Boston Center
09:41AM 42.3294 -74.1281 202° Southwest 258 297 10,100  Climbing Boston Center
09:42AM 42.2539 -74.1736 204° Southwest 263 303 10,100 -60 Level Boston Center
09:43AM 42.1928 -74.2083 203° Southwest 270 311 10,000 -60 Descending Boston Center
09:44AM 42.1231 -74.2622 210° Southwest 270 311 10,000 -240 Level Boston Center
09:45AM 42.0619 -74.3025 206° Southwest 270 311 9,600 -540 Descending Boston Center
09:46AM 41.9822 -74.3478 203° Southwest 281 323 9,000 -600 Descending Boston Center
09:47AM 41.9169 -74.3847 203° Southwest 281 323 8,500 -540 Descending Boston Center
09:48AM 41.8347 -74.4294 202° Southwest 281 323 8,000 -300 Descending Boston Center
09:49AM 41.7717 -74.4694 205° Southwest 286 329 8,000  Level Boston Center
09:50AM 41.6978 -74.5114 203° Southwest 280 322 8,000 -120 Level Boston Center
09:51AM 41.6367 -74.5456 203° Southwest 280 322 7,800 -660 Descending Boston Center
09:52AM 41.5508 -74.5650 190° South 280 322 6,700 -720 Descending Boston Center
09:54AM 41.4333 -74.5833 187° South 277 319 6,000 -300 Descending New York TRACON
09:55AM 41.3500 -74.6167 197° South 270 311 6,000  Level New York TRACON
09:56AM 41.2833 -74.6333 191° South 271 312 6,000 -480 Level New York TRACON
09:57AM 41.2167 -74.6333 180° South 287 330 5,100 -540 Descending New York TRACON
09:58AM 41.1333 -74.6333 180° South 286 329 5,000 -60 Descending New York TRACON
09:59AM 41.0500 -74.6167 171° South 284 327 5,000  Level New York TRACON
10:00AM 40.9667 -74.6167 180° South 278 320 5,000  Level New York TRACON
10:01AM 40.9000 -74.6000 169° South 276 318 5,000  Level New York TRACON
10:02AM 40.8167 -74.6000 180° South 270 311 5,000  Level New York TRACON
10:03AM 40.7500 -74.5833 169° South 270 311 5,000  Level New York TRACON
10:04AM 40.6667 -74.5833 180° South 265 305 5,000  Level New York TRACON
10:05AM 40.6000 -74.5500 159° South 269 310 5,000  Level New York TRACON
10:06AM 40.5333 -74.5333 169° South 270 311 5,000 -180 Level New York TRACON
10:07AM 40.4667 -74.5000 159° South 259 298 4,700 -780 Descending New York TRACON
10:08AM 40.4000 -74.4667 159° South 260 299 3,500 -900 Descending New York TRACON
10:09AM 40.4000 -74.3833 90° East 213 245 3,000 -300 Descending New York TRACON
10:10AM 40.4333 -74.3333 49° Northeast 188 216 3,000  Level New York TRACON
10:11AM 40.4833 -74.3000 27° Northeast 185 213 3,000  Level New York TRACON
10:12AM 40.5333 -74.2667 27° Northeast 188 216 3,000 -480 Level New York TRACON
10:13AM 40.5833 -74.2333 27° Northeast 189 217 2,200 -900 Descending New York TRACON
10:14AM 40.6167 -74.2167 21° North 168 193 1,300 -900 Descending New York TRACON
10:15AM 40.6667 -74.1833 27° Northeast 141 162 400 -840 Descending New York TRACON